Terminal Aerodrome Forecast
Issued by NWS

Home | Current Version | Previous Version | Text Only | Print | Product List | Glossary On
Versions: 1 2 3 4 5 6 7 8 9 10 11 12 13 14 15 16 17 18 19 20 21 22 23 24 25 26
000
FTUS42 KMFL 191140
TAFOPF
TAF
KOPF 191140Z 1912/2012 09005KT P6SM FEW030
     FM191500 09010KT P6SM VCSH FEW020 SCT035
     FM200000 09004KT P6SM VCSH SCT020 BKN035=

USA.gov is the U.S. government's official web portal to all federal, state and local government web resources and services.